Time;durP1;ratioP1;P1;durP2;ratioP2;P2;SDS_P1;SDS_P2;PMS_P1;PMS_P2;Temp;Humidity;BMP_temperature;BMP_pressure;BME280_temperature;BME280_humidity;BME280_pressure;Samples;Min_cycle;Max_cycle;Signal;HPM_P1;HPM_P2
2022/04/18 00:01:47;;;;;;;4.22;2.88;;;13.30;54.70;;;;;;5063419;28;20411;-60
2022/04/18 00:04:13;;;;;;;4.80;3.20;;;13.30;54.70;;;;;;5064595;28;20094;-60
2022/04/18 00:06:38;;;;;;;5.90;3.00;;;13.30;54.80;;;;;;5061214;28;20032;-60
2022/04/18 00:09:04;;;;;;;4.47;3.03;;;13.20;54.80;;;;;;5079107;28;20046;-60
2022/04/18 00:11:29;;;;;;;5.53;3.15;;;13.20;54.80;;;;;;5060929;28;20043;-60
2022/04/18 00:13:55;;;;;;;4.25;2.72;;;13.20;54.80;;;;;;5062383;28;20036;-60
2022/04/18 00:16:20;;;;;;;4.55;2.72;;;13.40;54.90;;;;;;5044442;28;20036;-60
2022/04/18 00:18:46;;;;;;;4.85;2.50;;;13.20;54.80;;;;;;5081363;28;20036;-60
2022/04/18 00:21:11;;;;;;;4.82;2.80;;;13.20;54.90;;;;;;5081042;28;20560;-60
2022/04/18 00:23:37;;;;;;;7.45;2.60;;;13.10;54.80;;;;;;5083700;28;20074;-59
2022/04/18 00:26:03;;;;;;;4.50;2.22;;;13.10;55.00;;;;;;5083081;28;20020;-60
2022/04/18 00:28:28;;;;;;;6.72;2.75;;;13.10;54.90;;;;;;5080795;28;20039;-59
2022/04/18 00:30:54;;;;;;;3.05;2.30;;;13.00;55.00;;;;;;5061721;28;20109;-60
2022/04/18 00:33:19;;;;;;;6.88;2.40;;;13.00;55.00;;;;;;5078808;28;20040;-60
2022/04/18 00:35:45;;;;;;;4.47;2.38;;;13.00;55.10;;;;;;5063555;28;20028;-59
2022/04/18 00:38:10;;;;;;;3.28;2.17;;;12.90;55.20;;;;;;5080228;28;20119;-60
2022/04/18 00:40:36;;;;;;;5.70;2.85;;;13.00;55.30;;;;;;5044510;28;20341;-60
2022/04/18 00:43:05;;;;;;;5.57;2.60;;;12.90;55.30;;;;;;5065104;28;20032;-60
2022/04/18 00:45:31;;;;;;;3.20;2.10;;;12.90;55.40;;;;;;5063916;28;20032;-60
2022/04/18 00:47:56;;;;;;;7.22;2.58;;;12.90;55.40;;;;;;5063374;28;20024;-60
2022/04/18 00:50:22;;;;;;;9.57;3.60;;;12.90;55.50;;;;;;5080198;28;20044;-60
2022/04/18 00:52:52;;;;;;;9.13;4.03;;;12.80;55.40;;;;;;5048571;28;20016;-60
2022/04/18 00:55:18;;;;;;;8.25;3.28;;;12.80;55.40;;;;;;5082650;28;20102;-60
2022/04/18 00:57:44;;;;;;;5.80;3.20;;;12.80;55.40;;;;;;5066171;28;20414;-60
2022/04/18 01:00:10;;;;;;;5.05;3.17;;;12.80;55.50;;;;;;5065984;28;20476;-60
2022/04/18 01:02:35;;;;;;;6.13;3.60;;;12.80;55.50;;;;;;5066542;28;20032;-60
2022/04/18 01:05:01;;;;;;;8.57;3.25;;;12.70;55.50;;;;;;5048863;28;20468;-60
2022/04/18 01:07:26;;;;;;;9.70;3.28;;;12.70;55.50;;;;;;5085225;28;20031;-59
2022/04/18 01:09:51;;;;;;;6.60;3.22;;;12.70;55.70;;;;;;5084584;28;20044;-60
2022/04/18 01:12:17;;;;;;;4.38;2.85;;;12.70;55.60;;;;;;5067543;28;20032;-60
2022/04/18 01:14:49;;;;;;;4.97;3.50;;;12.70;55.70;;;;;;5064274;28;20032;-60
2022/04/18 01:17:15;;;;;;;5.32;3.00;;;12.70;55.80;;;;;;5064943;28;20891;-61
2022/04/18 01:19:41;;;;;;;10.35;3.15;;;12.60;55.80;;;;;;5085113;28;20020;-60
2022/04/18 01:22:09;;;;;;;6.75;2.92;;;12.60;56.00;;;;;;5064715;28;20387;-60
2022/04/18 01:30:05;;;;;;;6.72;4.47;;;12.60;56.20;;;;;;5065354;28;20073;-59
2022/04/18 01:32:31;;;;;;;8.43;4.18;;;12.60;56.40;;;;;;5061149;28;20101;-60
2022/04/18 01:34:57;;;;;;;5.25;3.55;;;12.50;56.50;;;;;;5065568;28;20031;-60
2022/04/18 01:37:23;;;;;;;8.82;3.72;;;12.50;56.50;;;;;;5084172;28;20032;-60
2022/04/18 01:39:49;;;;;;;7.03;3.63;;;12.50;56.60;;;;;;5029353;28;20446;-60
2022/04/18 01:42:14;;;;;;;7.20;3.63;;;12.40;56.50;;;;;;5065524;28;20110;-60
2022/04/18 01:44:40;;;;;;;8.23;3.63;;;12.40;56.50;;;;;;5064138;28;20047;-60
2022/04/18 01:47:05;;;;;;;6.78;3.15;;;12.40;56.60;;;;;;5082184;28;20051;-60
2022/04/18 01:49:31;;;;;;;6.60;3.38;;;12.40;56.60;;;;;;5082635;28;20426;-61
2022/04/18 01:51:56;;;;;;;4.78;2.97;;;12.30;56.60;;;;;;5084099;28;20036;-60
2022/04/18 01:54:22;;;;;;;7.78;3.25;;;12.30;56.60;;;;;;5085276;28;20484;-59
2022/04/18 01:56:48;;;;;;;4.88;3.03;;;12.30;56.70;;;;;;5050443;28;20518;-60
2022/04/18 01:59:13;;;;;;;4.40;3.20;;;12.20;56.70;;;;;;5082894;28;20122;-60
2022/04/18 02:01:39;;;;;;;4.38;2.80;;;12.20;56.80;;;;;;5048356;28;20036;-60
2022/04/18 02:04:04;;;;;;;4.03;2.95;;;12.20;56.90;;;;;;5081237;28;20044;-60
2022/04/18 02:06:30;;;;;;;5.38;2.80;;;12.10;56.80;;;;;;5048229;28;20040;-60
2022/04/18 02:08:55;;;;;;;3.03;2.55;;;12.10;56.90;;;;;;5065140;28;20028;-60
2022/04/18 02:11:21;;;;;;;4.70;2.97;;;12.10;56.90;;;;;;5082363;28;20040;-60
2022/04/18 02:13:46;;;;;;;4.88;2.90;;;12.00;56.90;;;;;;5082855;28;20141;-59
2022/04/18 02:16:12;;;;;;;4.18;2.65;;;12.00;57.00;;;;;;5065399;28;20117;-59
2022/04/18 02:18:37;;;;;;;6.40;2.67;;;12.00;57.00;;;;;;5066566;28;20679;-60
2022/04/18 02:21:03;;;;;;;3.47;2.60;;;12.00;57.10;;;;;;5083059;28;20055;-59
2022/04/18 02:23:28;;;;;;;3.15;2.50;;;12.00;57.10;;;;;;5065801;28;20039;-59
2022/04/18 02:25:54;;;;;;;7.60;2.70;;;11.90;57.10;;;;;;5080689;28;20024;-60
2022/04/18 02:28:21;;;;;;;3.55;2.67;;;11.90;57.10;;;;;;5048589;28;20040;-60
2022/04/18 02:30:47;;;;;;;5.85;2.72;;;11.80;57.20;;;;;;5082245;28;20190;-60
2022/04/18 02:33:12;;;;;;;3.53;2.47;;;11.90;57.30;;;;;;5071552;28;20570;-60
2022/04/18 02:35:38;;;;;;;3.35;2.42;;;11.80;57.30;;;;;;5067646;28;20357;-60
2022/04/18 02:38:04;;;;;;;2.90;2.13;;;11.80;57.30;;;;;;5051796;28;20047;-59
2022/04/18 02:40:29;;;;;;;3.72;2.70;;;11.80;57.40;;;;;;5052250;28;20048;-59
2022/04/18 02:42:55;;;;;;;2.47;2.20;;;11.70;57.30;;;;;;5051236;28;20521;-60
2022/04/18 02:45:20;;;;;;;7.00;2.35;;;11.70;57.40;;;;;;5066617;28;20040;-60
2022/04/18 02:47:46;;;;;;;3.30;2.33;;;11.70;57.40;;;;;;5051228;28;20060;-60
2022/04/18 02:50:12;;;;;;;2.97;2.00;;;11.70;57.40;;;;;;5063332;28;20036;-59
2022/04/18 02:52:37;;;;;;;2.92;2.00;;;11.70;57.40;;;;;;5070845;28;20036;-60
2022/04/18 02:55:04;;;;;;;4.78;2.28;;;11.70;57.50;;;;;;5046226;28;20039;-60
2022/04/18 02:57:30;;;;;;;3.75;2.30;;;11.70;57.60;;;;;;5053938;28;20036;-60
2022/04/18 02:59:55;;;;;;;3.95;2.55;;;11.60;57.60;;;;;;5046903;28;20113;-60
2022/04/18 03:02:21;;;;;;;2.63;1.80;;;11.60;57.70;;;;;;5073417;28;20103;-60
2022/04/18 03:04:46;;;;;;;3.33;2.00;;;11.60;57.70;;;;;;5069683;28;20032;-60
2022/04/18 03:07:12;;;;;;;2.92;2.10;;;11.50;57.70;;;;;;5068053;28;20052;-60
2022/04/18 03:09:38;;;;;;;2.40;1.85;;;11.50;57.70;;;;;;5042030;28;20051;-61
2022/04/18 03:12:03;;;;;;;3.22;1.95;;;11.50;57.80;;;;;;5044471;28;20048;-59
2022/04/18 03:14:29;;;;;;;4.35;2.17;;;11.50;57.90;;;;;;5065637;28;20428;-60
2022/04/18 03:16:55;;;;;;;3.33;1.92;;;11.40;58.00;;;;;;5051796;28;20043;-60
2022/04/18 03:19:21;;;;;;;3.47;2.20;;;11.40;58.00;;;;;;5050334;28;20106;-60
2022/04/18 03:21:47;;;;;;;3.35;2.03;;;11.40;58.00;;;;;;5070814;28;20048;-60
2022/04/18 03:24:13;;;;;;;3.05;1.90;;;11.40;58.10;;;;;;5067387;28;20028;-60
2022/04/18 03:26:38;;;;;;;3.53;1.90;;;11.30;58.20;;;;;;5065533;28;20024;-59
2022/04/18 03:29:04;;;;;;;2.53;1.95;;;11.30;58.20;;;;;;5062955;28;20021;-59
2022/04/18 03:31:29;;;;;;;3.08;2.30;;;11.30;58.30;;;;;;5049050;28;20044;-60
2022/04/18 03:33:55;;;;;;;3.92;2.25;;;11.30;58.30;;;;;;5060472;28;20060;-59
2022/04/18 03:41:49;;;;;;;3.13;1.95;;;11.20;58.40;;;;;;5065228;28;20071;-60
2022/04/18 03:44:14;;;;;;;2.00;1.60;;;11.10;58.60;;;;;;5067074;28;20111;-59
2022/04/18 03:46:40;;;;;;;2.72;1.90;;;11.10;58.60;;;;;;5063442;28;20028;-60
2022/04/18 03:49:05;;;;;;;2.45;1.65;;;11.10;58.50;;;;;;5063253;28;20580;-60
2022/04/18 03:51:31;;;;;;;3.83;2.20;;;11.10;58.60;;;;;;5062442;28;20170;-60
2022/04/18 03:53:56;;;;;;;3.35;2.03;;;11.10;58.70;;;;;;5045663;28;20024;-59
2022/04/18 03:56:22;;;;;;;3.63;1.70;;;11.00;58.60;;;;;;5067188;28;20107;-59
2022/04/18 03:58:47;;;;;;;2.15;1.90;;;11.00;58.70;;;;;;5063465;28;20280;-59
2022/04/18 04:01:13;;;;;;;3.03;1.67;;;11.10;59.00;;;;;;5067297;28;20056;-60
2022/04/18 04:03:38;;;;;;;2.33;1.90;;;11.00;58.90;;;;;;5044852;28;20064;-60
2022/04/18 04:06:04;;;;;;;2.90;1.60;;;11.00;58.90;;;;;;5042709;28;20025;-59
2022/04/18 04:08:31;;;;;;;3.47;2.10;;;10.90;58.90;;;;;;5030076;28;20171;-60
2022/04/18 04:10:57;;;;;;;2.75;1.90;;;10.90;58.90;;;;;;5063323;28;20154;-58
2022/04/18 04:13:23;;;;;;;2.88;1.92;;;10.90;59.00;;;;;;5064191;28;20107;-60
2022/04/18 04:15:48;;;;;;;4.00;1.90;;;10.90;59.10;;;;;;5047969;28;20086;-59
2022/04/18 04:18:14;;;;;;;3.67;1.83;;;10.90;59.20;;;;;;5066512;28;20028;-60
2022/04/18 04:20:39;;;;;;;1.88;1.60;;;10.80;59.20;;;;;;5067018;28;20032;-59
2022/04/18 04:23:05;;;;;;;2.20;1.75;;;10.80;59.30;;;;;;5046202;28;20055;-60
2022/04/18 04:25:30;;;;;;;2.75;2.05;;;10.80;59.30;;;;;;5059761;28;20043;-59
2022/04/18 04:27:56;;;;;;;4.22;2.08;;;10.80;59.50;;;;;;5065731;28;20484;-59
2022/04/18 04:30:21;;;;;;;7.18;1.92;;;10.70;59.40;;;;;;5047969;28;20036;-59
2022/04/18 04:32:50;;;;;;;2.78;1.65;;;10.70;59.50;;;;;;5073964;28;20072;-60
2022/04/18 04:35:16;;;;;;;3.00;1.92;;;10.70;59.50;;;;;;5071539;28;20136;-59
2022/04/18 04:37:42;;;;;;;4.22;2.00;;;10.70;59.60;;;;;;5072156;28;20241;-60
2022/04/18 04:40:08;;;;;;;3.88;1.95;;;10.60;59.70;;;;;;5071838;28;20492;-60
2022/04/18 04:42:34;;;;;;;3.35;1.60;;;10.60;59.70;;;;;;5067646;28;20040;-60
2022/04/18 04:44:59;;;;;;;2.22;1.80;;;10.60;59.80;;;;;;5047731;28;20021;-59
2022/04/18 04:47:25;;;;;;;3.58;1.80;;;10.60;59.80;;;;;;5074793;28;20040;-59
2022/04/18 04:49:50;;;;;;;2.03;1.80;;;10.60;59.90;;;;;;5062663;28;20069;-59
2022/04/18 04:52:16;;;;;;;2.05;1.80;;;10.60;60.00;;;;;;5071654;28;20036;-59
2022/04/18 04:54:41;;;;;;;4.80;2.10;;;10.50;60.00;;;;;;5065503;28;20057;-60
2022/04/18 04:57:07;;;;;;;2.33;1.70;;;10.50;60.00;;;;;;5067837;28;20028;-59
2022/04/18 04:59:33;;;;;;;2.13;1.60;;;10.50;60.00;;;;;;5065518;28;20037;-59
2022/04/18 05:01:58;;;;;;;4.90;2.00;;;10.50;60.00;;;;;;5065149;28;20103;-58
2022/04/18 05:04:27;;;;;;;2.47;1.40;;;10.50;60.10;;;;;;5064829;28;20484;-60
2022/04/18 05:06:52;;;;;;;4.65;1.98;;;10.40;60.20;;;;;;5066474;28;20259;-60
2022/04/18 05:09:18;;;;;;;2.83;1.80;;;10.40;60.30;;;;;;5062760;28;20116;-60
2022/04/18 05:11:46;;;;;;;2.25;1.83;;;10.40;60.30;;;;;;5064479;28;20036;-60
2022/04/18 05:14:12;;;;;;;2.78;1.98;;;10.40;60.30;;;;;;5064925;28;20025;-59
2022/04/18 05:16:39;;;;;;;4.25;1.85;;;10.40;60.40;;;;;;5061995;28;20055;-59
2022/04/18 05:19:05;;;;;;;2.20;1.80;;;10.30;60.40;;;;;;5064183;28;20025;-60
2022/04/18 05:21:30;;;;;;;2.97;1.85;;;10.30;60.50;;;;;;5066008;28;20035;-59
2022/04/18 05:23:56;;;;;;;2.85;2.00;;;10.30;60.60;;;;;;5064803;28;20495;-59
2022/04/18 05:26:21;;;;;;;9.07;2.45;;;10.30;60.60;;;;;;5064139;28;20523;-61
2022/04/18 05:28:47;;;;;;;24.27;4.65;;;10.30;60.60;;;;;;5045835;28;20024;-60
2022/04/18 05:31:12;;;;;;;24.75;3.97;;;10.30;60.70;;;;;;5063513;28;20083;-59
2022/04/18 05:33:38;;;;;;;13.05;3.05;;;10.20;60.60;;;;;;5043840;28;20048;-60
2022/04/18 05:36:04;;;;;;;15.30;3.25;;;10.30;60.80;;;;;;5063184;28;20111;-59
2022/04/18 05:38:32;;;;;;;11.02;3.25;;;10.20;60.70;;;;;;5062723;28;20044;-60
2022/04/18 05:40:58;;;;;;;9.65;3.10;;;10.30;60.80;;;;;;5062160;28;20079;-60
2022/04/18 05:43:23;;;;;;;18.33;3.33;;;10.20;60.80;;;;;;5046942;28;20025;-60
2022/04/18 05:45:50;;;;;;;18.35;3.50;;;10.20;60.80;;;;;;5065247;28;20036;-60
2022/04/18 05:48:16;;;;;;;14.52;2.83;;;10.30;60.80;;;;;;5065208;28;20400;-60
2022/04/18 05:50:45;;;;;;;9.63;3.20;;;10.20;60.80;;;;;;5045268;28;20033;-60
2022/04/18 05:53:11;;;;;;;16.58;2.90;;;10.20;60.80;;;;;;5044792;28;20110;-59
2022/04/18 05:55:37;;;;;;;11.30;2.90;;;10.20;60.70;;;;;;5044349;28;20103;-59
2022/04/18 05:58:03;;;;;;;14.88;2.80;;;10.30;60.80;;;;;;5063829;28;20060;-60
2022/04/18 06:00:28;;;;;;;15.23;3.00;;;10.20;60.80;;;;;;5044348;28;20966;-60
2022/04/18 06:02:55;;;;;;;10.23;2.75;;;10.30;60.90;;;;;;5044415;28;20124;-60
2022/04/18 06:05:20;;;;;;;6.95;2.90;;;10.20;60.90;;;;;;5064923;28;20020;-58
2022/04/18 06:07:46;;;;;;;8.75;2.63;;;10.20;60.90;;;;;;5063280;28;20031;-60
2022/04/18 06:10:11;;;;;;;13.73;2.60;;;10.20;61.00;;;;;;5060797;28;20025;-59
2022/04/18 06:12:37;;;;;;;6.35;2.03;;;10.20;61.10;;;;;;5055140;28;20135;-59
2022/04/18 06:15:03;;;;;;;10.82;2.55;;;10.20;61.10;;;;;;5041903;28;20470;-60
2022/04/18 06:17:28;;;;;;;12.68;2.53;;;10.20;61.20;;;;;;5060242;28;20029;-59
2022/04/18 06:19:54;;;;;;;8.50;2.75;;;10.20;61.20;;;;;;5043359;28;21167;-59
2022/04/18 06:22:19;;;;;;;8.55;2.65;;;10.20;61.20;;;;;;5037578;28;20343;-60
2022/04/18 06:24:45;;;;;;;10.00;2.70;;;10.20;61.30;;;;;;5062321;28;21069;-60
2022/04/18 06:27:10;;;;;;;10.02;2.50;;;10.20;61.30;;;;;;5059311;28;20025;-59
2022/04/18 06:29:37;;;;;;;10.45;2.60;;;10.20;61.40;;;;;;5062045;28;20049;-60
2022/04/18 06:32:03;;;;;;;8.63;2.60;;;10.20;61.40;;;;;;5072906;28;20531;-60
2022/04/18 06:34:30;;;;;;;18.55;2.83;;;10.20;61.30;;;;;;5084344;28;20028;-59
2022/04/18 06:36:56;;;;;;;9.52;2.80;;;10.20;61.30;;;;;;5082168;28;20082;-59
2022/04/18 06:39:21;;;;;;;14.10;2.60;;;10.20;61.40;;;;;;5065138;28;20111;-59
2022/04/18 06:41:47;;;;;;;5.80;2.65;;;10.30;61.40;;;;;;5063405;28;20048;-60
2022/04/18 06:44:12;;;;;;;12.32;2.83;;;10.20;61.40;;;;;;5081237;28;20079;-60
2022/04/18 06:46:38;;;;;;;7.65;2.88;;;10.20;61.40;;;;;;5079869;28;20118;-60
2022/04/18 06:49:03;;;;;;;11.50;2.97;;;10.20;61.40;;;;;;5080263;28;20036;-57
2022/04/18 06:51:29;;;;;;;7.15;2.90;;;10.20;61.30;;;;;;5045374;28;20028;-60
2022/04/18 06:53:54;;;;;;;9.52;2.92;;;10.20;61.30;;;;;;5064565;28;20036;-60
2022/04/18 06:59:04;;;;;;;9.07;2.83;;;10.20;61.30;;;;;;5082349;28;20027;-59
2022/04/18 07:01:29;;;;;;;6.20;2.90;;;10.20;61.30;;;;;;5062869;28;20040;-59
2022/04/18 07:03:55;;;;;;;8.80;2.60;;;10.30;61.30;;;;;;5082333;28;20453;-60
2022/04/18 07:06:20;;;;;;;10.52;3.22;;;10.20;61.30;;;;;;5080406;28;20036;-60
2022/04/18 07:08:46;;;;;;;5.15;2.58;;;10.20;61.30;;;;;;5062624;28;20043;-59
2022/04/18 07:11:12;;;;;;;5.05;2.75;;;10.20;61.30;;;;;;5080473;28;20399;-60
2022/04/18 07:13:38;;;;;;;6.63;2.83;;;10.20;61.30;;;;;;5047227;28;20056;-60
2022/04/18 07:16:06;;;;;;;3.70;2.83;;;10.20;61.20;;;;;;5080128;28;20132;-60
2022/04/18 07:18:32;;;;;;;4.80;2.70;;;10.20;61.20;;;;;;5062096;28;20159;-60
2022/04/18 07:20:58;;;;;;;4.20;2.80;;;10.20;61.20;;;;;;5062958;28;20032;-60
2022/04/18 07:23:23;;;;;;;5.60;2.97;;;10.30;61.30;;;;;;5064090;28;20424;-60
2022/04/18 07:25:49;;;;;;;5.47;2.90;;;10.30;61.30;;;;;;5064165;28;20083;-60
2022/04/18 07:28:14;;;;;;;6.38;3.05;;;10.20;61.30;;;;;;5063301;28;20044;-59
2022/04/18 07:30:40;;;;;;;3.45;2.42;;;10.20;61.30;;;;;;5060944;28;20032;-60
2022/04/18 07:33:05;;;;;;;8.20;2.72;;;10.30;61.30;;;;;;5043001;28;20091;-64
2022/04/18 07:35:32;;;;;;;6.32;3.03;;;10.30;61.40;;;;;;5080346;28;20434;-60
2022/04/18 07:40:43;;;;;;;6.55;2.70;;;10.20;61.30;;;;;;5080852;28;20059;-62
2022/04/18 07:43:09;;;;;;;7.53;3.00;;;10.30;61.30;;;;;;5082097;28;20127;-60
2022/04/18 07:45:35;;;;;;;10.38;3.28;;;10.20;61.30;;;;;;5064167;28;20039;-59
2022/04/18 07:48:01;;;;;;;5.05;3.20;;;10.30;61.40;;;;;;5060958;28;20525;-61
2022/04/18 07:51:31;;;;;;;3.83;2.55;;;10.30;61.40;;;;;;5076672;28;20047;-60
2022/04/18 07:53:12;;;;;;;8.10;2.17;;;10.30;61.40;;;;;;5077711;28;20032;-59
2022/04/18 07:55:37;;;;;;;5.00;2.28;;;10.30;61.40;;;;;;5081133;28;20038;-61
2022/04/18 07:58:03;;;;;;;5.28;3.50;;;10.30;61.50;;;;;;5059805;28;20046;-59
2022/04/18 08:00:28;;;;;;;5.55;2.38;;;10.30;61.60;;;;;;5057382;28;20024;-60
2022/04/18 08:02:54;;;;;;;8.98;3.13;;;10.30;61.50;;;;;;5080195;28;20107;-60
2022/04/18 08:05:19;;;;;;;4.43;2.60;;;10.30;61.50;;;;;;5080772;28;20637;-60
2022/04/18 08:07:45;;;;;;;14.52;3.50;;;10.30;61.40;;;;;;5082377;28;20040;-60
2022/04/18 08:10:10;;;;;;;4.43;3.20;;;10.30;61.40;;;;;;5062410;28;20488;-59
2022/04/18 08:12:36;;;;;;;6.90;2.80;;;10.30;61.40;;;;;;5081293;28;20024;-60
2022/04/18 08:15:01;;;;;;;4.78;2.63;;;10.30;61.40;;;;;;5061680;28;20569;-60
2022/04/18 08:17:27;;;;;;;7.50;2.95;;;10.40;61.50;;;;;;5063335;28;20032;-60
2022/04/18 08:19:52;;;;;;;10.52;3.60;;;10.40;61.50;;;;;;5080262;28;20024;-59
2022/04/18 08:22:18;;;;;;;6.97;2.90;;;10.40;61.50;;;;;;5080120;28;20028;-59
2022/04/18 08:24:43;;;;;;;6.63;3.05;;;10.40;61.40;;;;;;5080878;28;20091;-60
2022/04/18 08:27:09;;;;;;;10.32;2.83;;;10.40;61.60;;;;;;5081663;28;20047;-59
2022/04/18 08:29:34;;;;;;;6.13;2.92;;;10.40;61.60;;;;;;5065570;28;20395;-60
2022/04/18 08:32:04;;;;;;;10.00;3.35;;;10.40;61.60;;;;;;5073921;28;20594;-60
2022/04/18 08:34:30;;;;;;;30.08;5.30;;;10.40;61.60;;;;;;5056910;28;20176;-59
2022/04/18 08:36:55;;;;;;;20.65;5.05;;;10.50;61.90;;;;;;5076676;28;20115;-59
2022/04/18 08:39:21;;;;;;;23.55;4.18;;;10.50;61.80;;;;;;5077171;28;20040;-60
2022/04/18 08:41:49;;;;;;;41.05;5.20;;;10.50;61.90;;;;;;5058440;28;20480;-60
2022/04/18 08:44:15;;;;;;;44.95;5.85;;;10.50;61.90;;;;;;5056270;28;20186;-59
2022/04/18 08:46:41;;;;;;;42.08;6.65;;;10.50;62.20;;;;;;5077863;28;20041;-59
2022/04/18 08:54:35;;;;;;;32.05;4.95;;;10.60;62.60;;;;;;5063629;28;20039;-60
2022/04/18 08:57:00;;;;;;;46.72;4.90;;;10.70;62.60;;;;;;5059049;28;20024;-60
2022/04/18 08:59:26;;;;;;;30.77;5.07;;;10.70;62.30;;;;;;5075105;28;20459;-59
2022/04/18 09:01:52;;;;;;;55.00;7.43;;;10.70;62.50;;;;;;5077531;28;20463;-59
2022/04/18 09:04:21;;;;;;;65.28;7.63;;;10.70;62.60;;;;;;5062664;28;20487;-67
2022/04/18 09:06:47;;;;;;;64.55;7.80;;;10.70;62.70;;;;;;5078142;28;20054;-60
2022/04/18 09:09:12;;;;;;;51.72;8.55;;;10.70;62.80;;;;;;5073856;28;20152;-60
2022/04/18 09:11:38;;;;;;;54.03;7.43;;;10.80;63.30;;;;;;5077961;28;20024;-60
2022/04/18 09:14:08;;;;;;;58.30;8.35;;;10.70;63.60;;;;;;5059626;28;20032;-60
2022/04/18 09:16:34;;;;;;;57.08;9.07;;;10.80;63.10;;;;;;5078634;28;20028;-60
2022/04/18 09:19:10;;;;;;;49.17;8.05;;;10.80;63.30;;;;;;5062994;28;20031;-60
2022/04/18 09:21:56;;;;;;;57.33;8.18;;;10.80;63.40;;;;;;5053982;28;20052;-61
2022/04/18 09:24:31;;;;;;;52.10;7.88;;;10.90;63.50;;;;;;5048089;28;20054;-59
2022/04/18 09:27:17;;;;;;;67.00;8.70;;;10.90;63.50;;;;;;5082123;28;20046;-60
2022/04/18 09:29:43;;;;;;;54.05;7.03;;;10.90;63.50;;;;;;5054510;28;20119;-60
2022/04/18 09:32:12;;;;;;;59.35;9.95;;;11.00;63.30;;;;;;5062470;28;20097;-59
2022/04/18 09:34:38;;;;;;;96.25;11.45;;;11.00;63.50;;;;;;5064183;28;20115;-59
2022/04/18 09:37:15;;;;;;;74.72;9.57;;;11.00;63.30;;;;;;5077830;28;20051;-60
2022/04/18 09:39:44;;;;;;;77.38;9.90;;;11.10;64.00;;;;;;5047334;28;20028;-59
2022/04/18 09:42:10;;;;;;;81.85;10.00;;;11.10;63.80;;;;;;5076244;28;20453;-59
2022/04/18 09:44:37;;;;;;;81.45;11.43;;;11.20;63.90;;;;;;5081273;28;20032;-59
2022/04/18 09:47:03;;;;;;;65.07;10.07;;;11.20;64.30;;;;;;5062699;28;21442;-59
2022/04/18 09:49:39;;;;;;;72.20;11.07;;;11.20;64.00;;;;;;5079639;28;20040;-60
2022/04/18 09:52:11;;;;;;;70.53;9.15;;;11.30;64.20;;;;;;5062019;28;20032;-60
2022/04/18 09:54:51;;;;;;;66.38;9.43;;;11.30;64.10;;;;;;5045615;28;20039;-60
2022/04/18 09:57:27;;;;;;;58.58;7.53;;;11.40;64.30;;;;;;5030396;28;20028;-61
2022/04/18 09:59:54;;;;;;;45.55;7.30;;;11.40;64.30;;;;;;5057890;28;20032;-59
2022/04/18 10:02:20;;;;;;;55.15;8.88;;;11.40;64.40;;;;;;5081669;28;20043;-60
2022/04/18 10:04:46;;;;;;;57.97;8.43;;;11.50;64.30;;;;;;5061121;28;20024;-60
2022/04/18 10:07:12;;;;;;;61.88;8.23;;;11.50;64.20;;;;;;5059531;28;20243;-60
2022/04/18 10:09:39;;;;;;;71.85;8.65;;;11.60;65.00;;;;;;5060025;28;20040;-60
2022/04/18 10:12:06;;;;;;;84.45;9.82;;;11.60;64.40;;;;;;5062874;28;20567;-59
2022/04/18 10:14:32;;;;;;;64.63;10.10;;;11.60;64.40;;;;;;5060104;28;20024;-60
2022/04/18 10:16:59;;;;;;;82.90;9.73;;;11.80;64.60;;;;;;5081208;28;20030;-59
2022/04/18 10:19:36;;;;;;;56.35;8.68;;;11.70;64.50;;;;;;5048235;28;20144;-60
2022/04/18 10:22:25;;;;;;;61.45;9.05;;;11.70;64.50;;;;;;5081677;28;20886;-60
2022/04/18 10:25:25;;;;;;;68.82;8.32;;;11.80;64.50;;;;;;5062662;28;20043;-59
2022/04/18 10:28:20;;;;;;;86.85;10.60;;;11.80;64.40;;;;;;5067886;28;20497;-60
2022/04/18 10:30:55;;;;;;;68.10;10.00;;;11.90;64.60;;;;;;5083258;28;20068;-62
2022/04/18 10:33:20;;;;;;;72.57;9.13;;;11.90;64.60;;;;;;5065160;28;20596;-60
2022/04/18 10:36:02;;;;;;;90.18;11.02;;;12.00;64.50;;;;;;5062335;28;20131;-59
2022/04/18 10:38:29;;;;;;;63.33;8.98;;;12.00;64.50;;;;;;5046175;28;20063;-59
2022/04/18 10:43:58;;;;;;;84.78;9.63;;;12.10;64.40;;;;;;5079604;28;20094;-59
2022/04/18 10:46:24;;;;;;;71.22;9.35;;;12.20;64.40;;;;;;5082584;28;20076;-60
2022/04/18 10:49:04;;;;;;;75.25;10.18;;;12.20;64.30;;;;;;5081389;28;20668;-60
2022/04/18 10:51:33;;;;;;;92.65;10.40;;;12.30;64.30;;;;;;5062282;28;20453;-60
2022/04/18 10:54:14;;;;;;;75.32;9.32;;;12.40;64.00;;;;;;5060320;28;20024;-59
2022/04/18 10:57:01;;;;;;;60.15;10.05;;;12.40;64.00;;;;;;5062752;28;20032;-60
2022/04/18 10:59:36;;;;;;;62.50;9.73;;;12.40;63.80;;;;;;5080095;28;20040;-60
2022/04/18 11:02:03;;;;;;;63.10;9.32;;;12.50;63.70;;;;;;5062019;28;20016;-60
2022/04/18 11:04:38;;;;;;;65.15;9.25;;;12.60;63.70;;;;;;5044093;28;20028;-61
2022/04/18 11:07:08;;;;;;;63.28;9.35;;;12.70;63.60;;;;;;5079954;28;20024;-60
2022/04/18 11:09:36;;;;;;;74.45;10.15;;;12.70;63.50;;;;;;5080228;28;20094;-60
2022/04/18 11:12:18;;;;;;;56.05;9.07;;;12.70;63.30;;;;;;5081532;28;20472;-60
2022/04/18 11:14:43;;;;;;;63.67;9.77;;;12.80;63.20;;;;;;5027258;28;20054;-60
2022/04/18 11:17:12;;;;;;;63.55;9.15;;;12.80;63.20;;;;;;5081231;28;20480;-60
2022/04/18 11:19:42;;;;;;;68.75;9.15;;;12.90;63.10;;;;;;5063357;28;20423;-60
2022/04/18 11:22:16;;;;;;;58.42;8.70;;;12.90;62.90;;;;;;5078607;28;20105;-60
2022/04/18 11:24:56;;;;;;;53.50;7.85;;;13.00;62.70;;;;;;5062665;28;20568;-60
2022/04/18 11:27:28;;;;;;;65.68;7.75;;;13.10;62.50;;;;;;5078898;28;20035;-60
2022/04/18 11:29:55;;;;;;;56.58;7.45;;;13.20;62.20;;;;;;5063827;28;20077;-60
2022/04/18 11:32:28;;;;;;;71.60;9.00;;;13.20;62.00;;;;;;5062907;28;20044;-60
2022/04/18 11:34:54;;;;;;;39.85;7.45;;;13.30;62.00;;;;;;5064757;28;20024;-60
2022/04/18 11:37:33;;;;;;;72.22;9.32;;;13.40;61.90;;;;;;5081779;28;20527;-59
2022/04/18 11:40:03;;;;;;;59.00;7.85;;;13.50;61.70;;;;;;5081204;28;20040;-60
2022/04/18 11:42:30;;;;;;;52.58;9.48;;;13.60;61.50;;;;;;5081242;28;20098;-60
2022/04/18 11:45:03;;;;;;;51.38;7.97;;;13.60;61.30;;;;;;5062186;28;20036;-60
2022/04/18 11:47:40;;;;;;;56.35;7.70;;;13.80;61.00;;;;;;5081246;28;20333;-60
2022/04/18 11:50:07;;;;;;;47.83;7.70;;;13.80;60.50;;;;;;5045880;28;20030;-60
2022/04/18 11:52:37;;;;;;;56.35;7.90;;;14.00;60.70;;;;;;5045531;28;20545;-60
2022/04/18 11:55:02;;;;;;;45.25;6.68;;;14.10;60.60;;;;;;5029392;28;20034;-60
2022/04/18 11:57:29;;;;;;;64.60;8.05;;;14.20;60.40;;;;;;5061565;28;20047;-60
2022/04/18 11:59:55;;;;;;;41.40;6.72;;;14.20;60.00;;;;;;5081890;28;20020;-60
2022/04/18 12:06:44;;;;;;;45.83;6.30;;;14.40;59.80;;;;;;5050191;28;20035;-60
2022/04/18 12:08:02;;;;;;;71.30;9.23;;;14.50;59.40;;;;;;5053171;28;20463;-60
2022/04/18 12:10:31;;;;;;;65.38;8.80;;;14.50;59.70;;;;;;5062143;28;20020;-60
2022/04/18 12:12:57;;;;;;;53.75;8.02;;;14.60;59.70;;;;;;5029158;28;20035;-60
2022/04/18 12:15:23;;;;;;;62.40;8.57;;;14.70;59.70;;;;;;5045306;28;20440;-60
2022/04/18 12:17:50;;;;;;;63.08;8.55;;;14.80;59.30;;;;;;5080514;28;20032;-60
2022/04/18 12:20:29;;;;;;;87.53;8.70;;;14.80;59.00;;;;;;5063868;28;20039;-61
2022/04/18 12:23:00;;;;;;;61.00;9.70;;;14.90;59.00;;;;;;5072875;28;20028;-59
2022/04/18 12:25:28;;;;;;;67.13;9.02;;;15.00;59.10;;;;;;5040961;28;20028;-61
2022/04/18 12:27:54;;;;;;;61.72;8.27;;;15.00;59.20;;;;;;5061401;28;20085;-60
2022/04/18 12:30:20;;;;;;;40.92;7.78;;;15.10;59.10;;;;;;5040321;28;20153;-60
2022/04/18 12:32:48;;;;;;;47.45;7.57;;;15.20;59.00;;;;;;5054853;28;20040;-60
2022/04/18 12:35:39;;;;;;;57.22;6.82;;;15.30;58.70;;;;;;5081405;28;20365;-60
2022/04/18 12:38:06;;;;;;;54.47;7.40;;;15.30;57.60;;;;;;5060398;28;20135;-60
2022/04/18 12:40:39;;;;;;;42.25;6.75;;;15.40;57.50;;;;;;5060149;28;20114;-59
2022/04/18 12:43:08;;;;;;;36.33;6.90;;;15.50;57.60;;;;;;5062242;28;21444;-60
2022/04/18 12:45:44;;;;;;;43.75;7.03;;;15.60;57.40;;;;;;5079938;28;20342;-60
2022/04/18 12:48:10;;;;;;;66.28;7.18;;;15.70;57.10;;;;;;5062295;28;20032;-60
2022/04/18 12:50:36;;;;;;;53.00;6.88;;;15.70;56.80;;;;;;5079444;28;20032;-60
2022/04/18 12:53:02;;;;;;;65.18;8.48;;;15.90;56.70;;;;;;5064123;28;20040;-61
2022/04/18 12:55:30;;;;;;;59.30;7.47;;;15.90;56.70;;;;;;5076841;28;20035;-60
2022/04/18 12:57:58;;;;;;;35.72;6.95;;;16.00;56.50;;;;;;5075713;28;20030;-60
2022/04/18 13:00:24;;;;;;;50.25;7.63;;;16.10;56.10;;;;;;5062673;28;20053;-60
2022/04/18 13:03:00;;;;;;;49.83;7.80;;;16.20;55.90;;;;;;5083481;28;20024;-60
2022/04/18 13:05:29;;;;;;;41.80;6.53;;;16.20;55.50;;;;;;5080664;28;20040;-61
2022/04/18 13:08:04;;;;;;;47.78;7.35;;;16.30;55.20;;;;;;5066377;28;20111;-60
2022/04/18 13:10:34;;;;;;;43.42;7.07;;;16.40;55.20;;;;;;5049468;28;20136;-60
2022/04/18 13:13:13;;;;;;;55.65;7.95;;;16.50;55.40;;;;;;5048029;28;20066;-60